»·PEaware :: N2845K KPVF-KBFL

N2845K :: KPVF-KBFL

FLIGHT INFORMATION

Flight Status: Arrived
Operator: Privately registered:
United States
More flights under this callsign
Pilot: Slade E. (12022)
Aircraft: CESSNA 180 SKYWAGON
(C180)
More flights by this aircraft type
Origin: KPVF Placerville
United States
Destination: KBFL Meadows
United States
More flights between these airports :: More routes between these airports
Route: +FRA VIS TTE
File this flight plan on PilotEdge
Remarks:
Altitude:
(Current/Filed)
4,500ft
Speed:
(Current/Filed)
140kts
Departed: 20-Dec-17 03:32 PM
Arrived: 20-Dec-17 05:15 PM
Distance/Time
Traveled:
214nm/1:43
Distance/Time
To Go:
Arrived

Flight Plot

Page will automatically refresh every two minutes.

Flight plan parsing failed; only flown route is shown


Map Options




Map Legend


Flown Route
Filed Route
Departure Airport
Arrival Airport
Navaid (VOR, NDB)
Fix

Horizontal Profiles

Position Reports

Time Latitude Longitude Heading Altitude Ground
Speed
20-Dec-17 15:23 38.723929 -120.756589 58 2588ft 0kts
20-Dec-17 15:24 38.723929 -120.756589 58 2588ft 0kts
20-Dec-17 15:25 38.723929 -120.756589 58 2588ft 0kts
20-Dec-17 15:26 38.723929 -120.756589 58 2588ft 0kts
20-Dec-17 15:27 38.723929 -120.756589 58 2588ft 0kts
20-Dec-17 15:28 38.723929 -120.756589 58 2588ft 0kts
20-Dec-17 15:29 38.723929 -120.756589 58 2588ft 0kts
20-Dec-17 15:30 38.723929 -120.756589 58 2588ft 0kts
20-Dec-17 15:31 38.723929 -120.756589 58 2588ft 0kts
20-Dec-17 15:32 38.723929 -120.756589 58 2588ft 0kts
20-Dec-17 15:33 38.724000 -120.755087 61 2588ft 9kts
20-Dec-17 15:34 38.725419 -120.751508 62 2588ft 17kts
20-Dec-17 15:35 38.727099 -120.747577 30 2588ft 0kts
20-Dec-17 15:36 38.727098 -120.747577 29 2588ft 0kts
20-Dec-17 15:37 38.727169 -120.747084 132 2588ft 9kts
20-Dec-17 15:38 38.725778 -120.749438 240 2588ft 54kts
20-Dec-17 15:39 38.716137 -120.770025 240 3533ft 73kts
20-Dec-17 15:40 38.694466 -120.792516 197 3704ft 126kts
20-Dec-17 15:41 38.658837 -120.804831 198 3662ft 141kts
20-Dec-17 15:42 38.621697 -120.821228 202 3626ft 141kts
20-Dec-17 15:43 38.584936 -120.838826 198 3588ft 141kts
20-Dec-17 15:44 38.546849 -120.851769 194 3553ft 141kts
20-Dec-17 15:45 38.508699 -120.863511 195 3517ft 141kts
20-Dec-17 15:46 38.470276 -120.874708 194 3480ft 141kts
20-Dec-17 15:47 38.431759 -120.887380 196 3449ft 144kts
20-Dec-17 15:48 38.393256 -120.900661 198 3448ft 145kts
20-Dec-17 15:49 38.353257 -120.913051 195 3422ft 148kts
20-Dec-17 15:50 38.319883 -120.921549 191 3418ft 148kts
20-Dec-17 15:51 38.279481 -120.930218 192 3457ft 146kts
20-Dec-17 15:52 38.239930 -120.930597 137 3495ft 148kts
20-Dec-17 15:53 38.208974 -120.896443 141 3594ft 147kts
20-Dec-17 15:54 38.176326 -120.861520 139 3468ft 152kts
20-Dec-17 15:55 38.144320 -120.826258 139 3442ft 152kts
20-Dec-17 15:56 38.112001 -120.792037 141 3421ft 151kts
20-Dec-17 15:57 38.079011 -120.759649 144 3451ft 149kts
20-Dec-17 15:58 38.044743 -120.730258 147 3452ft 148kts
20-Dec-17 15:59 38.012762 -120.696669 139 3453ft 149kts
20-Dec-17 16:00 37.981764 -120.662465 139 3453ft 146kts
20-Dec-17 16:01 37.952094 -120.628148 139 3452ft 143kts
20-Dec-17 16:02 37.922665 -120.594126 139 3453ft 143kts
20-Dec-17 16:03 37.893490 -120.560447 140 3453ft 142kts
20-Dec-17 16:04 37.864162 -120.526646 140 3453ft 142kts
20-Dec-17 16:05 37.834861 -120.492932 140 3453ft 142kts
20-Dec-17 16:06 37.805709 -120.459443 140 3453ft 142kts
20-Dec-17 16:07 37.776709 -120.426184 140 3453ft 142kts
20-Dec-17 16:08 37.747560 -120.392790 140 3481ft 141kts
20-Dec-17 16:09 37.718666 -120.359752 140 3481ft 142kts
20-Dec-17 16:10 37.689447 -120.326388 140 3479ft 141kts
20-Dec-17 16:11 37.660295 -120.293140 140 3479ft 141kts
20-Dec-17 16:12 37.631079 -120.259872 140 3479ft 141kts
20-Dec-17 16:13 37.601813 -120.226626 141 3479ft 141kts
20-Dec-17 16:14 37.569521 -120.197363 145 3480ft 145kts
20-Dec-17 16:15 37.535727 -120.168799 145 3479ft 146kts
20-Dec-17 16:16 37.501426 -120.139865 145 3480ft 152kts
20-Dec-17 16:17 37.466150 -120.110142 145 3480ft 153kts
20-Dec-17 16:18 37.430611 -120.080245 145 3480ft 155kts
20-Dec-17 16:19 37.394793 -120.050153 145 3480ft 155kts
20-Dec-17 16:20 37.358855 -120.020006 145 3480ft 155kts
20-Dec-17 16:21 37.324002 -119.988200 140 3480ft 155kts
20-Dec-17 16:22 37.290348 -119.953979 140 3480ft 155kts
20-Dec-17 16:23 37.256768 -119.919880 140 3480ft 155kts
20-Dec-17 16:24 37.224152 -119.884567 136 3480ft 155kts
20-Dec-17 16:25 37.192805 -119.847132 135 3480ft 155kts
20-Dec-17 16:26 37.161505 -119.809788 135 3481ft 155kts
20-Dec-17 16:27 37.130603 -119.771971 135 3480ft 155kts
20-Dec-17 16:28 37.100151 -119.734099 135 3481ft 155kts
20-Dec-17 16:29 37.069778 -119.696382 135 3481ft 155kts
20-Dec-17 16:30 37.039147 -119.658403 135 3481ft 155kts
20-Dec-17 16:31 37.008467 -119.620419 135 3481ft 155kts
20-Dec-17 16:32 36.977686 -119.582367 135 3481ft 155kts
20-Dec-17 16:33 36.946982 -119.544469 135 3481ft 155kts
20-Dec-17 16:34 36.916248 -119.506570 135 3481ft 155kts
20-Dec-17 16:35 36.886051 -119.468933 135 3480ft 155kts
20-Dec-17 16:36 36.854008 -119.433128 140 3480ft 155kts
20-Dec-17 16:37 36.813750 -119.424953 181 3480ft 150kts
20-Dec-17 16:38 36.772010 -119.423787 181 3480ft 150kts
20-Dec-17 16:39 36.730448 -119.422655 181 3480ft 150kts
20-Dec-17 16:40 36.688601 -119.421545 181 3480ft 150kts
20-Dec-17 16:41 36.646876 -119.421126 183 3481ft 150kts
20-Dec-17 16:42 36.605188 -119.423029 186 3481ft 149kts
20-Dec-17 16:43 36.563436 -119.427258 186 3480ft 152kts
20-Dec-17 16:44 36.521259 -119.431958 186 3480ft 152kts
20-Dec-17 16:45 36.482469 -119.412679 151 3480ft 154kts
20-Dec-17 16:46 36.444645 -119.387632 151 3480ft 154kts
20-Dec-17 16:47 36.406755 -119.362577 151 3480ft 154kts
20-Dec-17 16:48 36.369270 -119.337811 152 3480ft 154kts
20-Dec-17 16:49 36.331373 -119.312792 152 3480ft 154kts
20-Dec-17 16:50 36.293540 -119.287855 152 3480ft 154kts
20-Dec-17 16:51 36.255655 -119.262922 152 3480ft 154kts
20-Dec-17 16:52 36.217773 -119.238029 152 3480ft 154kts
20-Dec-17 16:53 36.179954 -119.213614 152 3480ft 152kts
20-Dec-17 16:54 36.142376 -119.190220 152 3471ft 151kts
20-Dec-17 16:55 36.104863 -119.166909 152 3471ft 150kts
20-Dec-17 16:56 36.067351 -119.143639 152 3471ft 150kts
20-Dec-17 16:57 36.029879 -119.120432 152 3471ft 150kts
20-Dec-17 16:58 35.992082 -119.098560 154 3002ft 151kts
20-Dec-17 16:59 35.953871 -119.078676 158 2550ft 150kts
20-Dec-17 17:00 35.914923 -119.060865 159 2508ft 148kts
20-Dec-17 17:01 35.876138 -119.054516 181 2447ft 149kts
20-Dec-17 17:02 35.835117 -119.054747 177 2450ft 147kts
20-Dec-17 17:03 35.794677 -119.051556 173 2494ft 144kts
20-Dec-17 17:04 35.755743 -119.046789 173 2603ft 136kts
20-Dec-17 17:05 35.718959 -119.044525 179 2538ft 136kts
20-Dec-17 17:06 35.687505 -119.046405 185 2496ft 135kts
20-Dec-17 17:07 35.645111 -119.047855 179 2605ft 132kts
20-Dec-17 17:08 35.608099 -119.047707 177 2626ft 131kts
20-Dec-17 17:09 35.571218 -119.048037 179 2561ft 134kts
20-Dec-17 17:10 35.539883 -119.048529 179 2637ft 133kts
20-Dec-17 17:11 35.497640 -119.048666 179 2514ft 128kts
20-Dec-17 17:12 35.476703 -119.026719 125 2544ft 118kts
20-Dec-17 17:13 35.458409 -118.994870 126 2636ft 111kts
20-Dec-17 17:14 35.436790 -118.959645 167 2632ft 106kts
20-Dec-17 17:15 35.416139 -118.973073 213 2008ft 98kts
20-Dec-17 17:16 35.395626 -118.988248 223 1572ft 78kts
20-Dec-17 17:17 35.396496 -119.011479 312 1139ft 72kts
20-Dec-17 17:18 35.410126 -119.027458 309 973ft 63kts
20-Dec-17 17:19 35.422173 -119.042059 308 828ft 59kts
20-Dec-17 17:20 35.434150 -119.056592 310 533ft 60kts
20-Dec-17 17:21 35.440980 -119.064877 344 510ft 10kts
20-Dec-17 17:22 35.442256 -119.064477 59 510ft 0kts
20-Dec-17 17:23 35.439893 -119.061321 134 510ft 22kts
20-Dec-17 17:24 35.435767 -119.056126 136 510ft 20kts
20-Dec-17 17:25 35.432899 -119.051851 38 510ft 12kts
20-Dec-17 17:26 35.433390 -119.050806 90 510ft 0kts

Navigation Log

Ident Type
Flight plan parsing failed, navigation log unavailable